SKW3936 KMKE-KDTW
Flight info
| Callsign | SKW3936 |
|---|---|
| Flight time | N/A |
| Altitude | 27000 |
| Route | SQUIB DUUDA RKCTY2 |
| Aircraft | CRJ9/M-SDFGIRWY/S |
Departure
| Time | 2026-04-20 20:47 |
|---|---|
| Airport | General Mitchell International Airport (KMKE) |
Arrival
| Time | N/A |
|---|---|
| Airport | Detroit Metropolitan Wayne County Airport (KDTW) |
| Time | Latitude | Longitude | Altitude | Speed | Heading |
|---|---|---|---|---|---|
| 2026-04-20 20:25 | 42.94910 | -87.89846 | 686 ft | 0 kts | 207° |
| 2026-04-20 20:38 | 42.94915 | -87.89843 | 686 ft | 4 kts | 207° |
| 2026-04-20 20:39 | 42.94939 | -87.89826 | 684 ft | 4 kts | 207° |
| 2026-04-20 20:39 | 42.94960 | -87.89814 | 684 ft | 4 kts | 190° |
| 2026-04-20 20:39 | 42.94978 | -87.89822 | 680 ft | 4 kts | 124° |
| 2026-04-20 20:39 | 42.94981 | -87.89853 | 683 ft | 4 kts | 76° |
| 2026-04-20 20:40 | 42.94974 | -87.89888 | 680 ft | 4 kts | 73° |
| 2026-04-20 20:40 | 42.94971 | -87.89903 | 685 ft | 0 kts | 73° |
| 2026-04-20 20:43 | 42.94971 | -87.89902 | 681 ft | 1 kts | 73° |
| 2026-04-20 20:43 | 42.94977 | -87.89874 | 686 ft | 7 kts | 73° |
| 2026-04-20 20:44 | 42.95026 | -87.89798 | 684 ft | 15 kts | 31° |
| 2026-04-20 20:44 | 42.95143 | -87.89714 | 683 ft | 23 kts | 27° |
| 2026-04-20 20:44 | 42.95311 | -87.89597 | 686 ft | 31 kts | 28° |
| 2026-04-20 20:44 | 42.95533 | -87.89491 | 686 ft | 35 kts | 8° |
| 2026-04-20 20:45 | 42.95713 | -87.89456 | 683 ft | 12 kts | 24° |
| 2026-04-20 20:45 | 42.95732 | -87.89439 | 686 ft | 4 kts | 43° |
| 2026-04-20 20:45 | 42.95748 | -87.89389 | 686 ft | 7 kts | 81° |
| 2026-04-20 20:45 | 42.95731 | -87.89317 | 684 ft | 11 kts | 148° |
| 2026-04-20 20:46 | 42.95602 | -87.89328 | 686 ft | 40 kts | 186° |
| 2026-04-20 20:46 | 42.95134 | -87.89414 | 686 ft | 95 kts | 189° |
| 2026-04-20 20:46 | 42.94319 | -87.89546 | 683 ft | 138 kts | 187° |
| 2026-04-20 20:46 | 42.93285 | -87.89781 | 857 ft | 159 kts | 185° |
| 2026-04-20 20:47 | 42.92151 | -87.90021 | 1285 ft | 174 kts | 185° |
| 2026-04-20 20:47 | 42.90822 | -87.90263 | 1514 ft | 207 kts | 185° |
| 2026-04-20 20:47 | 42.89434 | -87.90478 | 2588 ft | 194 kts | 186° |
| 2026-04-20 20:47 | 42.88111 | -87.90402 | 3531 ft | 193 kts | 167° |
| 2026-04-20 20:48 | 42.86856 | -87.89496 | 3965 ft | 218 kts | 145° |
| 2026-04-20 20:48 | 42.85818 | -87.87898 | 4590 ft | 228 kts | 129° |
| 2026-04-20 20:48 | 42.84918 | -87.86127 | 5341 ft | 233 kts | 130° |
| 2026-04-20 20:48 | 42.83973 | -87.84256 | 5848 ft | 246 kts | 120° |
| 2026-04-20 20:49 | 42.83478 | -87.81939 | 6352 ft | 267 kts | 96° |
| 2026-04-20 20:49 | 42.83558 | -87.79392 | 7023 ft | 272 kts | 78° |
| 2026-04-20 20:49 | 42.83890 | -87.76915 | 8061 ft | 265 kts | 77° |
| 2026-04-20 20:49 | 42.84217 | -87.74336 | 8409 ft | 288 kts | 77° |
| 2026-04-20 20:50 | 42.84562 | -87.71674 | 9289 ft | 288 kts | 77° |
| 2026-04-20 20:50 | 42.84912 | -87.68924 | 9826 ft | 302 kts | 76° |
| 2026-04-20 20:50 | 42.85266 | -87.66087 | 10566 ft | 306 kts | 76° |
| 2026-04-20 20:50 | 42.85605 | -87.63193 | 11304 ft | 310 kts | 77° |
| 2026-04-20 20:51 | 42.85937 | -87.60210 | 11726 ft | 328 kts | 76° |
| 2026-04-20 20:51 | 42.86299 | -87.57094 | 12059 ft | 346 kts | 77° |
| 2026-04-20 20:51 | 42.86680 | -87.53775 | 12475 ft | 361 kts | 76° |
| 2026-04-20 20:51 | 42.87075 | -87.50353 | 13115 ft | 368 kts | 76° |
| 2026-04-20 20:52 | 42.87475 | -87.46869 | 13831 ft | 373 kts | 76° |
| 2026-04-20 20:52 | 42.87879 | -87.43344 | 14511 ft | 378 kts | 76° |
| 2026-04-20 20:52 | 42.88283 | -87.39819 | 15151 ft | 381 kts | 76° |
| 2026-04-20 20:52 | 42.88694 | -87.36223 | 15810 ft | 385 kts | 75° |
| 2026-04-20 20:53 | 42.89108 | -87.32598 | 16444 ft | 389 kts | 75° |
| 2026-04-20 20:53 | 42.89524 | -87.28952 | 17082 ft | 393 kts | 75° |
| 2026-04-20 20:53 | 42.89945 | -87.25257 | 17706 ft | 397 kts | 75° |
| 2026-04-20 20:53 | 42.90370 | -87.21501 | 18312 ft | 401 kts | 74° |
| 2026-04-20 20:54 | 42.90795 | -87.17737 | 18874 ft | 405 kts | 74° |
| 2026-04-20 20:54 | 42.91227 | -87.13901 | 19391 ft | 408 kts | 74° |
| 2026-04-20 20:54 | 42.91658 | -87.10086 | 19896 ft | 412 kts | 74° |
| 2026-04-20 20:54 | 42.92098 | -87.06196 | 20400 ft | 415 kts | 74° |
| 2026-04-20 20:55 | 42.92512 | -87.02312 | 20883 ft | 419 kts | 75° |
| 2026-04-20 20:55 | 42.92916 | -86.98336 | 21364 ft | 423 kts | 75° |
| 2026-04-20 20:55 | 42.93317 | -86.94338 | 21839 ft | 426 kts | 74° |
| 2026-04-20 20:55 | 42.93719 | -86.90364 | 22297 ft | 429 kts | 75° |
| 2026-04-20 20:56 | 42.94143 | -86.86316 | 22740 ft | 432 kts | 74° |
| 2026-04-20 20:56 | 42.94577 | -86.82238 | 23185 ft | 434 kts | 74° |
| 2026-04-20 20:56 | 42.95012 | -86.78131 | 23618 ft | 437 kts | 74° |
| 2026-04-20 20:56 | 42.95443 | -86.74058 | 24020 ft | 440 kts | 74° |
| 2026-04-20 20:57 | 42.95880 | -86.69917 | 24371 ft | 443 kts | 74° |
| 2026-04-20 20:57 | 42.96322 | -86.65721 | 24728 ft | 445 kts | 74° |
| 2026-04-20 20:57 | 42.96760 | -86.61563 | 25063 ft | 447 kts | 73° |
| 2026-04-20 20:57 | 42.97201 | -86.57330 | 25403 ft | 450 kts | 73° |
| 2026-04-20 20:58 | 42.97639 | -86.53117 | 25728 ft | 452 kts | 73° |
| 2026-04-20 20:58 | 42.98083 | -86.48836 | 26058 ft | 454 kts | 73° |
| 2026-04-20 20:58 | 42.98526 | -86.44545 | 26375 ft | 456 kts | 73° |
| 2026-04-20 20:58 | 42.98966 | -86.40297 | 26679 ft | 458 kts | 73° |
| 2026-04-20 20:59 | 42.99409 | -86.35972 | 26980 ft | 460 kts | 73° |
| 2026-04-20 20:59 | 42.99852 | -86.31619 | 27211 ft | 464 kts | 73° |
| 2026-04-20 20:59 | 43.00302 | -86.27217 | 27315 ft | 470 kts | 74° |
| 2026-04-20 20:59 | 43.00750 | -86.22805 | 27362 ft | 478 kts | 74° |
| 2026-04-20 21:00 | 43.01207 | -86.18266 | 27384 ft | 486 kts | 74° |
| 2026-04-20 21:00 | 43.01668 | -86.13648 | 27396 ft | 491 kts | 74° |
| 2026-04-20 21:00 | 43.02126 | -86.09033 | 27398 ft | 489 kts | 74° |
| 2026-04-20 21:00 | 43.02584 | -86.04436 | 27381 ft | 487 kts | 75° |
| 2026-04-20 21:01 | 43.03038 | -85.99851 | 27372 ft | 485 kts | 74° |
| 2026-04-20 21:01 | 43.03484 | -85.95344 | 27378 ft | 483 kts | 74° |
| 2026-04-20 21:01 | 43.03933 | -85.90788 | 27377 ft | 482 kts | 74° |
| 2026-04-20 21:01 | 43.04377 | -85.86235 | 27377 ft | 481 kts | 74° |
| 2026-04-20 21:02 | 43.04816 | -85.81748 | 27372 ft | 480 kts | 75° |
| 2026-04-20 21:02 | 43.05255 | -85.77219 | 27362 ft | 479 kts | 75° |
| 2026-04-20 21:02 | 43.05693 | -85.72706 | 27359 ft | 478 kts | 75° |
| 2026-04-20 21:02 | 43.06128 | -85.68187 | 27359 ft | 477 kts | 75° |
| 2026-04-20 21:03 | 43.06556 | -85.63725 | 27357 ft | 476 kts | 75° |
| 2026-04-20 21:03 | 43.06982 | -85.59249 | 27356 ft | 475 kts | 75° |
| 2026-04-20 21:03 | 43.07412 | -85.54747 | 27358 ft | 474 kts | 75° |
| 2026-04-20 21:03 | 43.07832 | -85.50304 | 27351 ft | 473 kts | 75° |
| 2026-04-20 21:04 | 43.08255 | -85.45835 | 27363 ft | 472 kts | 75° |
| 2026-04-20 21:04 | 43.08676 | -85.41369 | 27362 ft | 471 kts | 75° |
| 2026-04-20 21:04 | 43.09085 | -85.37013 | 27212 ft | 465 kts | 75° |
| 2026-04-20 21:04 | 43.09501 | -85.32613 | 26906 ft | 463 kts | 75° |
| 2026-04-20 21:05 | 43.09904 | -85.28279 | 26607 ft | 461 kts | 75° |
| 2026-04-20 21:05 | 43.10307 | -85.23901 | 26317 ft | 460 kts | 75° |
| 2026-04-20 21:05 | 43.10705 | -85.19587 | 25881 ft | 460 kts | 75° |
| 2026-04-20 21:05 | 43.11103 | -85.15235 | 25451 ft | 458 kts | 75° |
| 2026-04-20 21:06 | 43.11497 | -85.10927 | 25021 ft | 456 kts | 76° |
| 2026-04-20 21:06 | 43.11890 | -85.06610 | 24600 ft | 454 kts | 76° |
| 2026-04-20 21:06 | 43.12278 | -85.02335 | 24184 ft | 453 kts | 76° |
| 2026-04-20 21:06 | 43.12666 | -84.98041 | 23732 ft | 451 kts | 76° |
| 2026-04-20 21:07 | 43.13048 | -84.93791 | 23240 ft | 450 kts | 76° |
| 2026-04-20 21:07 | 43.13392 | -84.89550 | 22754 ft | 452 kts | 81° |
| 2026-04-20 21:07 | 43.12994 | -84.85195 | 22254 ft | 466 kts | 103° |
| 2026-04-20 21:07 | 43.11614 | -84.81160 | 21803 ft | 471 kts | 120° |
| 2026-04-20 21:08 | 43.09724 | -84.77487 | 21362 ft | 471 kts | 125° |
| 2026-04-20 21:08 | 43.07766 | -84.73971 | 20932 ft | 470 kts | 126° |
| 2026-04-20 21:08 | 43.05818 | -84.70398 | 20489 ft | 468 kts | 124° |
| 2026-04-20 21:08 | 43.03952 | -84.66740 | 20061 ft | 466 kts | 122° |
| 2026-04-20 21:09 | 43.02133 | -84.63065 | 19623 ft | 465 kts | 122° |
| 2026-04-20 21:09 | 43.00298 | -84.59419 | 19196 ft | 463 kts | 123° |
| 2026-04-20 21:09 | 42.98481 | -84.55846 | 18774 ft | 462 kts | 123° |
| 2026-04-20 21:09 | 42.96655 | -84.52239 | 18310 ft | 460 kts | 123° |
| 2026-04-20 21:10 | 42.94824 | -84.48630 | 17823 ft | 459 kts | 123° |
| 2026-04-20 21:10 | 42.93059 | -84.45067 | 17355 ft | 457 kts | 122° |
| 2026-04-20 21:10 | 42.91277 | -84.41465 | 16879 ft | 455 kts | 123° |
| 2026-04-20 21:10 | 42.89504 | -84.37880 | 16419 ft | 453 kts | 123° |
| 2026-04-20 21:11 | 42.87759 | -84.34359 | 15973 ft | 447 kts | 123° |
| 2026-04-20 21:11 | 42.86044 | -84.30905 | 15511 ft | 433 kts | 123° |
| 2026-04-20 21:11 | 42.84375 | -84.27544 | 15061 ft | 422 kts | 123° |
| 2026-04-20 21:11 | 42.82745 | -84.24267 | 14615 ft | 412 kts | 123° |
| 2026-04-20 21:12 | 42.81154 | -84.21069 | 14226 ft | 403 kts | 123° |
| 2026-04-20 21:12 | 42.79593 | -84.17935 | 13786 ft | 394 kts | 123° |
| 2026-04-20 21:12 | 42.78070 | -84.14877 | 13347 ft | 386 kts | 123° |
| 2026-04-20 21:12 | 42.76588 | -84.11915 | 12921 ft | 380 kts | 123° |
| 2026-04-20 21:13 | 42.75112 | -84.08965 | 12496 ft | 373 kts | 123° |
| 2026-04-20 21:13 | 42.73668 | -84.06051 | 12078 ft | 367 kts | 123° |
| 2026-04-20 21:13 | 42.72243 | -84.03190 | 11675 ft | 362 kts | 123° |
| 2026-04-20 21:13 | 42.70836 | -84.00379 | 11253 ft | 357 kts | 124° |
| 2026-04-20 21:14 | 42.69447 | -83.97606 | 10872 ft | 352 kts | 123° |
| 2026-04-20 21:14 | 42.68345 | -83.94723 | 10474 ft | 345 kts | 108° |
| 2026-04-20 21:14 | 42.67690 | -83.91611 | 10060 ft | 339 kts | 101° |
| 2026-04-20 21:14 | 42.67181 | -83.88494 | 9644 ft | 335 kts | 100° |
| 2026-04-20 21:15 | 42.66696 | -83.85447 | 9223 ft | 331 kts | 100° |
| 2026-04-20 21:15 | 42.66188 | -83.82418 | 8804 ft | 327 kts | 102° |
| 2026-04-20 21:15 | 42.65641 | -83.79428 | 8416 ft | 323 kts | 103° |
| 2026-04-20 21:15 | 42.65083 | -83.76496 | 8023 ft | 319 kts | 103° |
| 2026-04-20 21:16 | 42.64714 | -83.74551 | 7780 ft | 316 kts | 103° |
| 2026-04-20 21:16 | 42.64170 | -83.71705 | 7372 ft | 312 kts | 103° |
| 2026-04-20 21:16 | 42.63628 | -83.68838 | 6972 ft | 308 kts | 103° |
| 2026-04-20 21:16 | 42.63092 | -83.66058 | 6579 ft | 304 kts | 104° |
| 2026-04-20 21:17 | 42.62550 | -83.63339 | 6256 ft | 297 kts | 105° |
| 2026-04-20 21:17 | 42.61997 | -83.60682 | 6106 ft | 284 kts | 105° |
| 2026-04-20 21:17 | 42.61458 | -83.58160 | 6029 ft | 271 kts | 105° |
| 2026-04-20 21:17 | 42.61036 | -83.56164 | 6032 ft | 260 kts | 106° |
| 2026-04-20 21:18 | 42.60520 | -83.53846 | 6013 ft | 248 kts | 107° |
| 2026-04-20 21:18 | 42.60036 | -83.51677 | 5990 ft | 238 kts | 106° |
| 2026-04-20 21:18 | 42.59573 | -83.49541 | 5980 ft | 228 kts | 106° |
| 2026-04-20 21:18 | 42.59145 | -83.47521 | 5973 ft | 219 kts | 105° |
| 2026-04-20 21:19 | 42.58733 | -83.45579 | 5958 ft | 209 kts | 105° |
| 2026-04-20 21:19 | 42.58339 | -83.43727 | 5945 ft | 199 kts | 105° |
| 2026-04-20 21:19 | 42.57963 | -83.41963 | 5939 ft | 189 kts | 106° |
| 2026-04-20 21:20 | 42.57266 | -83.38735 | 5916 ft | 166 kts | 106° |
| 2026-04-20 21:20 | 42.56957 | -83.37301 | 5831 ft | 152 kts | 104° |
| 2026-04-20 21:20 | 42.57099 | -83.35955 | 4631 ft | 208 kts | 65° |